Time;durP1;ratioP1;P1;durP2;ratioP2;P2;SDS_P1;SDS_P2;PMS_P1;PMS_P2;Temp;Humidity;BMP_temperature;BMP_pressure;BME280_temperature;BME280_humidity;BME280_pressure;Samples;Min_cycle;Max_cycle;Signal;HPM_P1;HPM_P2
2022/12/14 00:01:28;;;;;;;36.63;13.40;;;;;;;-5.83;92.19;92446.47;4991312;28;20042;-70
2022/12/14 00:03:55;;;;;;;37.55;14.48;;;;;;;-5.97;92.50;92443.53;4991281;28;20042;-70
2022/12/14 00:06:25;;;;;;;38.17;15.32;;;;;;;-6.00;93.77;92436.94;4990985;28;20051;-70
2022/12/14 00:08:53;;;;;;;43.22;15.55;;;;;;;-5.82;93.44;92432.75;4991541;28;20048;-70
2022/12/14 00:11:23;;;;;;;39.63;14.43;;;;;;;-5.79;93.37;92427.81;4991141;28;20104;-71
2022/12/14 00:13:55;;;;;;;36.35;14.75;;;;;;;-5.82;92.38;92424.72;4991670;28;20057;-70
2022/12/14 00:16:23;;;;;;;39.50;14.98;;;;;;;-5.89;93.38;92421.16;4990904;28;20050;-67
2022/12/14 00:18:53;;;;;;;38.22;14.57;;;;;;;-5.67;93.80;92415.13;4991303;28;20501;-67
2022/12/14 00:21:20;;;;;;;35.65;14.57;;;;;;;-5.61;92.11;92420.97;4990772;28;20415;-68
2022/12/14 00:23:49;;;;;;;37.13;14.70;;;;;;;-5.60;92.99;92419.06;4991193;28;20046;-67
2022/12/14 00:26:24;;;;;;;38.90;15.27;;;;;;;-5.94;93.44;92419.50;4990250;28;20081;-67
2022/12/14 00:28:53;;;;;;;37.95;15.70;;;;;;;-5.94;93.81;92424.09;4991096;28;20046;-70
2022/12/14 00:31:21;;;;;;;35.75;13.35;;;;;;;-6.03;94.21;92427.75;4990684;28;20511;-70
2022/12/14 00:33:49;;;;;;;36.10;14.95;;;;;;;-6.17;94.19;92424.75;4991209;28;20042;-69
2022/12/14 00:36:16;;;;;;;39.67;14.63;;;;;;;-6.11;95.34;92428.72;4990379;28;20080;-70
2022/12/14 00:38:43;;;;;;;40.30;14.88;;;;;;;-6.09;95.50;92426.47;4990981;28;20514;-70
2022/12/14 00:41:10;;;;;;;42.42;15.48;;;;;;;-6.09;96.49;92431.03;4990260;28;20046;-67
2022/12/14 00:43:37;;;;;;;45.45;16.40;;;;;;;-6.20;97.10;92435.34;4990849;28;20402;-68
2022/12/14 00:46:04;;;;;;;37.03;14.98;;;;;;;-6.24;96.45;92440.59;4989329;28;20058;-67
2022/12/14 00:48:31;;;;;;;34.80;12.93;;;;;;;-6.25;96.46;92421.16;4990130;28;20696;-68
2022/12/14 00:50:58;;;;;;;43.63;15.82;;;;;;;-6.30;97.47;92436.66;4990859;28;20096;-68
2022/12/14 00:53:25;;;;;;;41.58;15.68;;;;;;;-6.30;96.74;92423.31;4990190;28;20115;-69
2022/12/14 00:55:52;;;;;;;39.80;13.95;;;;;;;-6.14;97.20;92426.72;4990775;28;20046;-69
2022/12/14 00:58:22;;;;;;;41.28;15.82;;;;;;;-5.97;96.68;92427.50;4989977;28;20501;-69
2022/12/14 01:01:06;;;;;;;52.83;18.00;;;;;;;-5.89;96.27;92429.16;4990295;28;20046;-68
2022/12/14 01:03:33;;;;;;;44.70;15.05;;;;;;;-6.08;96.69;92433.34;4990000;28;20042;-68
2022/12/14 01:06:01;;;;;;;41.53;15.15;;;;;;;-5.94;96.63;92419.50;4990361;28;20393;-68
2022/12/14 01:08:34;;;;;;;42.70;15.88;;;;;;;-5.98;97.01;92416.00;4990251;28;20042;-68
2022/12/14 01:11:06;;;;;;;54.08;19.75;;;;;;;-5.74;96.98;92409.63;4990334;28;20043;-68
2022/12/14 01:13:33;;;;;;;46.30;16.47;;;;;;;-5.79;96.48;92411.78;4989748;28;20487;-68
2022/12/14 01:16:09;;;;;;;43.38;16.02;;;;;;;-5.83;96.53;92414.41;4990517;28;20043;-68
2022/12/14 01:18:37;;;;;;;43.70;15.95;;;;;;;-5.78;96.62;92416.78;4989553;28;20403;-68
2022/12/14 01:21:15;;;;;;;39.35;16.13;;;;;;;-5.63;96.02;92415.22;4990339;28;20038;-68
2022/12/14 01:23:43;;;;;;;43.83;16.35;;;;;;;-5.68;96.59;92416.25;5004593;28;20557;-69
2022/12/14 01:26:12;;;;;;;44.43;17.40;;;;;;;-5.51;95.95;92422.31;4989868;28;20057;-69
2022/12/14 01:28:40;;;;;;;43.10;15.45;;;;;;;-5.63;96.08;92420.56;4990460;28;20038;-68
2022/12/14 01:31:16;;;;;;;42.53;15.63;;;;;;;-5.77;96.20;92420.25;4989527;28;20667;-68
2022/12/14 01:33:44;;;;;;;43.50;15.40;;;;;;;-5.69;96.83;92413.94;4990516;28;20400;-68
2022/12/14 01:36:13;;;;;;;40.90;15.85;;;;;;;-5.74;96.51;92419.53;4989737;28;20054;-68
2022/12/14 01:38:40;;;;;;;43.13;15.27;;;;;;;-5.67;96.93;92399.09;4990418;28;20050;-68
2022/12/14 01:41:08;;;;;;;39.97;15.60;;;;;;;-5.65;96.13;92412.88;4989845;28;20049;-68
2022/12/14 01:43:49;;;;;;;45.13;15.48;;;;;;;-5.76;97.12;92403.09;4990427;28;20068;-68
2022/12/14 01:46:25;;;;;;;42.30;15.55;;;;;;;-5.85;97.81;92398.72;4989697;28;20048;-68
2022/12/14 01:48:56;;;;;;;39.20;14.98;;;;;;;-5.89;98.83;92391.78;4990379;28;20447;-68
2022/12/14 01:51:25;;;;;;;38.83;15.03;;;;;;;-5.87;98.83;92390.28;4989867;28;20104;-68
2022/12/14 01:53:53;;;;;;;47.55;16.67;;;;;;;-5.88;98.79;92379.94;4990266;28;20050;-68
2022/12/14 01:56:20;;;;;;;102.00;35.17;;;;;;;-5.64;99.35;92384.25;4989545;28;20042;-68
2022/12/14 01:58:47;;;;;;;51.10;18.52;;;;;;;-5.55;98.66;92376.00;4990119;28;20038;-68
2022/12/14 02:01:14;;;;;;;44.65;16.45;;;;;;;-5.53;97.80;92377.22;4989187;28;20403;-68
2022/12/14 02:03:46;;;;;;;43.87;16.13;;;;;;;-5.55;97.70;92371.47;4990433;28;20038;-68
2022/12/14 02:06:20;;;;;;;38.95;15.20;;;;;;;-5.70;97.87;92365.03;4989571;28;20047;-68
2022/12/14 02:08:51;;;;;;;41.60;16.70;;;;;;;-5.78;98.00;92363.34;4990190;28;20483;-69
2022/12/14 02:11:28;;;;;;;42.72;15.38;;;;;;;-5.74;98.55;92376.78;4987614;28;20046;-68
2022/12/14 02:13:54;;;;;;;42.50;16.00;;;;;;;-5.83;98.54;92374.34;4993859;28;20443;-68
2022/12/14 02:16:22;;;;;;;41.93;15.30;;;;;;;-5.82;98.58;92365.19;4992850;28;20058;-69
2022/12/14 02:18:48;;;;;;;42.83;15.70;;;;;;;-5.85;98.47;92374.69;4993454;28;20051;-69
2022/12/14 02:21:35;;;;;;;41.65;15.15;;;;;;;-5.82;98.57;92363.28;4992654;28;20552;-68
2022/12/14 02:24:37;;;;;;;42.25;15.98;;;;;;;-6.02;99.31;92364.41;4993246;28;20068;-69
2022/12/14 02:27:29;;;;;;;40.95;15.35;;;;;;;-5.85;99.43;92355.97;4973015;28;20042;-69
2022/12/14 02:30:17;;;;;;;42.03;14.77;;;;;;;-5.86;99.25;92365.09;4973256;28;20884;-69
2022/12/14 02:33:22;;;;;;;44.17;16.42;;;;;;;-5.92;98.56;92369.19;4973192;28;20066;-69
2022/12/14 02:35:51;;;;;;;30.75;11.25;;;;;;;-5.86;98.61;92350.97;4973091;28;20496;-69
2022/12/14 02:38:40;;;;;;;44.10;16.25;;;;;;;-5.97;99.29;92358.81;4972851;28;20101;-69
2022/12/14 02:41:18;;;;;;;28.27;10.80;;;;;;;-5.86;98.83;92350.97;4973249;28;20054;-69
2022/12/14 02:44:16;;;;;;;44.60;16.47;;;;;;;-6.03;99.58;92352.97;4973891;28;20535;-69
2022/12/14 02:47:02;;;;;;;42.97;15.18;;;;;;;-5.79;100.00;92348.47;4972834;28;20042;-69
2022/12/14 02:49:55;;;;;;;46.78;15.50;;;;;;;-5.75;99.10;92346.63;4973280;28;20050;-69
2022/12/14 02:52:30;;;;;;;42.60;15.05;;;;;;;-5.79;98.73;92347.66;4987655;28;20386;-69
2022/12/14 02:55:02;;;;;;;44.00;15.63;;;;;;;-5.71;98.78;92346.72;4973860;28;20048;-69
2022/12/14 02:57:39;;;;;;;45.80;16.03;;;;;;;-5.66;98.58;92341.84;4991940;28;20046;-69
2022/12/14 03:00:07;;;;;;;42.78;15.20;;;;;;;-5.60;98.53;92328.19;4992202;28;20143;-68
2022/12/14 03:02:37;;;;;;;46.10;17.83;;;;;;;-5.64;97.89;92336.16;4992780;28;20407;-69
2022/12/14 03:05:05;;;;;;;41.78;15.63;;;;;;;-5.55;98.05;92327.91;4992529;28;20046;-69
2022/12/14 03:07:41;;;;;;;46.20;16.13;;;;;;;-5.53;98.35;92331.00;4991980;28;20065;-69
2022/12/14 03:10:19;;;;;;;43.33;15.37;;;;;;;-5.47;98.43;92340.31;4992077;28;20052;-69
2022/12/14 03:12:54;;;;;;;43.67;15.88;;;;;;;-5.44;97.52;92332.31;4992630;28;20042;-69
2022/12/14 03:15:24;;;;;;;47.03;15.85;;;;;;;-5.43;97.82;92319.75;4991839;28;20065;-69
2022/12/14 03:17:55;;;;;;;47.45;16.83;;;;;;;-5.49;98.08;92318.50;4992529;28;20402;-70
2022/12/14 03:20:25;;;;;;;42.67;15.90;;;;;;;-5.47;97.22;92322.34;4991814;28;20052;-69
2022/12/14 03:23:09;;;;;;;42.57;15.37;;;;;;;-5.44;98.37;92326.97;4992450;28;20038;-69
2022/12/14 03:25:44;;;;;;;42.17;15.95;;;;;;;-5.45;98.36;92317.44;4991330;28;20929;-69
2022/12/14 03:28:19;;;;;;;42.00;16.25;;;;;;;-5.41;97.82;92312.16;4991622;28;20055;-69
2022/12/14 03:30:52;;;;;;;40.92;16.10;;;;;;;-5.53;98.50;92313.09;4992404;28;20042;-69
2022/12/14 03:33:29;;;;;;;43.55;16.13;;;;;;;-5.46;99.03;92313.19;4991680;28;20061;-69
2022/12/14 03:36:08;;;;;;;43.43;16.13;;;;;;;-5.48;99.04;92301.31;4991170;28;20471;-69
2022/12/14 03:38:40;;;;;;;41.25;15.38;;;;;;;-5.50;99.25;92308.91;4991319;28;20642;-70
2022/12/14 03:41:45;;;;;;;48.30;17.42;;;;;;;-5.61;99.79;92298.03;4991305;28;20069;-69
2022/12/14 03:44:27;;;;;;;46.40;16.77;;;;;;;-5.53;99.70;92301.59;4991787;28;20046;-69
2022/12/14 03:46:54;;;;;;;42.85;15.48;;;;;;;-5.51;99.37;92300.13;4993885;28;20042;-69
2022/12/14 03:49:28;;;;;;;49.53;16.73;;;;;;;-5.44;99.69;92300.25;4991883;28;20123;-69
2022/12/14 03:52:02;;;;;;;42.13;15.13;;;;;;;-5.43;98.98;92296.47;4992058;28;20046;-69
2022/12/14 03:54:34;;;;;;;47.75;16.73;;;;;;;-5.50;99.46;92292.88;4990902;28;20156;-69
2022/12/14 03:57:11;;;;;;;46.35;16.52;;;;;;;-5.42;99.28;92292.66;4991426;28;20051;-69
2022/12/14 03:59:58;;;;;;;49.10;16.85;;;;;;;-5.42;99.28;92295.31;4990973;28;20925;-70
2022/12/14 04:02:30;;;;;;;49.30;17.27;;;;;;;-5.37;99.68;92290.81;4990793;28;20044;-69
2022/12/14 04:05:22;;;;;;;46.17;17.23;;;;;;;-5.37;100.00;92282.78;4991761;28;20038;-69
2022/12/14 04:08:00;;;;;;;50.00;17.13;;;;;;;-5.34;99.60;92271.41;4990909;28;21583;-70
2022/12/14 04:19:17;;;;;;;46.05;17.10;;;;;;;-5.13;98.96;92265.63;4990831;28;20100;-69
2022/12/14 04:21:52;;;;;;;46.67;17.20;;;;;;;-5.00;99.04;92260.88;4990046;28;20042;-69
2022/12/14 04:27:17;;;;;;;50.50;18.95;;;;;;;-5.06;98.18;92260.41;4990609;28;20043;-69
2022/12/14 04:29:56;;;;;;;45.90;18.13;;;;;;;-5.02;98.42;92264.66;4991166;28;20061;-69
2022/12/14 04:32:34;;;;;;;46.05;17.15;;;;;;;-5.02;98.48;92263.91;4990215;28;20092;-69
2022/12/14 04:35:04;;;;;;;49.75;18.15;;;;;;;-5.00;99.00;92258.97;4990694;28;20491;-69
2022/12/14 04:37:34;;;;;;;47.15;17.50;;;;;;;-4.86;98.71;92261.84;4989609;28;20042;-69
2022/12/14 04:40:07;;;;;;;46.45;18.25;;;;;;;-4.98;98.35;92251.34;4990893;28;20384;-70
2022/12/14 04:42:42;;;;;;;47.13;16.50;;;;;;;-5.01;98.87;92249.38;4990139;28;20064;-69
2022/12/14 04:45:16;;;;;;;49.38;17.80;;;;;;;-4.96;98.92;92242.97;4990275;28;20108;-69
2022/12/14 04:47:54;;;;;;;47.17;17.40;;;;;;;-4.98;98.73;92239.88;4991088;28;20053;-69
2022/12/14 04:50:28;;;;;;;49.60;17.52;;;;;;;-4.95;98.57;92244.50;4990306;28;20112;-69
2022/12/14 04:53:14;;;;;;;49.78;17.88;;;;;;;-4.96;99.10;92243.72;4990807;28;20042;-69
2022/12/14 04:55:53;;;;;;;49.20;17.90;;;;;;;-5.08;99.37;92243.94;4989966;28;20922;-69
2022/12/14 04:58:27;;;;;;;42.80;17.13;;;;;;;-4.92;99.03;92239.22;4989779;28;20058;-69
2022/12/14 05:01:29;;;;;;;50.83;19.80;;;;;;;-4.99;98.68;92241.00;4990371;28;20046;-68
2022/12/14 05:04:12;;;;;;;52.42;18.33;;;;;;;-4.93;99.48;92237.69;4989927;28;20836;-69
2022/12/14 05:06:46;;;;;;;51.08;18.40;;;;;;;-5.00;99.82;92237.56;5004907;28;20380;-70
2022/12/14 05:09:25;;;;;;;53.67;17.83;;;;;;;-4.87;98.84;92230.09;4990023;28;20058;-70
2022/12/14 05:12:09;;;;;;;51.40;17.95;;;;;;;-4.76;98.88;92227.59;4990781;28;20131;-69
2022/12/14 05:14:51;;;;;;;45.63;17.90;;;;;;;-4.60;98.03;92219.41;4989649;28;20892;-69
2022/12/14 05:17:18;;;;;;;47.47;18.05;;;;;;;-4.60;97.72;92214.06;4989741;28;20054;-69
2022/12/14 05:19:46;;;;;;;82.97;29.65;;;;;;;-4.60;97.51;92206.78;4990647;28;20042;-70
2022/12/14 05:22:15;;;;;;;47.27;17.73;;;;;;;-4.48;97.27;92197.75;4989829;28;20565;-69
2022/12/14 05:24:42;;;;;;;47.88;18.60;;;;;;;-4.77;97.07;92194.69;4990461;28;20075;-69
2022/12/14 05:27:09;;;;;;;50.53;20.35;;;;;;;-4.77;97.91;92193.94;4989775;28;20128;-69
2022/12/14 05:29:35;;;;;;;54.03;19.63;;;;;;;-4.96;98.98;92190.22;4990147;28;20046;-69
2022/12/14 05:32:03;;;;;;;50.58;19.17;;;;;;;-4.68;98.73;92195.22;5005311;28;20042;-69
2022/12/14 05:34:30;;;;;;;57.57;20.27;;;;;;;-4.65;98.08;92188.34;4989452;28;20396;-69
2022/12/14 05:36:57;;;;;;;55.03;18.65;;;;;;;-4.72;98.59;92183.69;4990298;28;20034;-69
2022/12/14 05:39:23;;;;;;;57.72;19.33;;;;;;;-4.68;98.90;92181.06;4989512;28;20046;-70
2022/12/14 05:41:52;;;;;;;53.58;19.52;;;;;;;-4.78;98.72;92171.00;4990454;28;20035;-69
2022/12/14 05:44:18;;;;;;;52.53;18.90;;;;;;;-4.54;97.82;92167.09;4989507;28;20477;-69
2022/12/14 05:46:45;;;;;;;57.33;19.87;;;;;;;-4.46;97.75;92166.81;4991729;28;20502;-69
2022/12/14 05:49:12;;;;;;;69.90;23.85;;;;;;;-4.45;96.97;92164.91;4993432;28;20050;-67
2022/12/14 05:51:39;;;;;;;64.40;21.63;;;;;;;-4.34;97.52;92165.81;4992697;28;20038;-69
2022/12/14 05:54:06;;;;;;;57.67;20.58;;;;;;;-4.30;97.42;92158.59;4993978;28;20403;-69
2022/12/14 05:56:32;;;;;;;52.85;17.85;;;;;;;-4.38;96.32;92158.88;4992537;28;20697;-70
2022/12/14 05:58:59;;;;;;;42.90;16.47;;;;;;;-4.35;96.83;92161.56;4993836;28;20050;-70
2022/12/14 06:01:26;;;;;;;48.40;17.90;;;;;;;-4.49;97.08;92161.41;4990747;28;20136;-70
2022/12/14 06:03:53;;;;;;;56.08;19.73;;;;;;;-4.67;97.56;92153.94;5008785;28;20050;-70
2022/12/14 06:06:20;;;;;;;52.88;19.85;;;;;;;-4.81;97.81;92151.06;4998172;28;20060;-70
2022/12/14 06:08:47;;;;;;;54.17;19.70;;;;;;;-4.76;99.06;92148.06;5027457;28;20068;-69
2022/12/14 06:11:19;;;;;;;50.50;17.80;;;;;;;-4.66;98.78;92154.72;4998227;28;20041;-68
2022/12/14 06:13:47;;;;;;;46.17;18.40;;;;;;;-4.80;98.46;92149.94;4992793;28;20050;-68
2022/12/14 06:16:14;;;;;;;54.63;21.27;;;;;;;-4.86;99.26;92146.81;4992705;28;20050;-68
2022/12/14 06:18:47;;;;;;;50.95;19.45;;;;;;;-4.85;100.00;92144.88;4992786;28;20150;-68
2022/12/14 06:21:16;;;;;;;46.50;17.30;;;;;;;-4.89;99.25;92133.38;4990974;28;20054;-68
2022/12/14 06:23:43;;;;;;;57.67;19.00;;;;;;;-4.82;100.00;92139.59;4993665;28;20054;-68
2022/12/14 06:26:11;;;;;;;57.80;21.52;;;;;;;-4.70;99.77;92135.16;5004779;28;20049;-68
2022/12/14 06:28:38;;;;;;;49.22;18.30;;;;;;;-4.64;99.56;92133.69;5012162;28;20050;-68
2022/12/14 06:31:05;;;;;;;52.13;18.90;;;;;;;-4.46;99.78;92133.91;5011854;28;20450;-69
2022/12/14 06:33:34;;;;;;;48.53;18.67;;;;;;;-4.32;98.98;92136.00;5011168;28;21596;-69
2022/12/14 06:36:01;;;;;;;49.37;17.03;;;;;;;-4.24;98.38;92137.59;5000044;28;20077;-69
2022/12/14 06:38:29;;;;;;;45.38;17.52;;;;;;;-4.19;98.07;92129.22;5009347;28;20046;-69
2022/12/14 06:40:55;;;;;;;44.47;17.80;;;;;;;-4.15;98.35;92129.28;5012559;28;20045;-69
2022/12/14 06:43:25;;;;;;;48.58;18.05;;;;;;;-4.07;98.13;92128.97;5011485;28;20387;-70
2022/12/14 06:45:53;;;;;;;45.78;16.58;;;;;;;-4.15;98.21;92123.91;5012385;28;20048;-69
2022/12/14 06:48:20;;;;;;;46.40;17.63;;;;;;;-4.10;98.59;92124.34;5011777;28;20107;-69
2022/12/14 06:50:48;;;;;;;51.03;19.08;;;;;;;-4.05;98.50;92118.66;5027304;28;20042;-69
2022/12/14 06:53:14;;;;;;;50.17;18.70;;;;;;;-4.07;98.01;92123.59;5011564;28;20402;-70
2022/12/14 06:55:41;;;;;;;44.97;18.15;;;;;;;-3.91;98.12;92123.38;5006125;28;20050;-69
2022/12/14 06:58:12;;;;;;;48.33;18.58;;;;;;;-3.84;97.37;92120.03;5008993;28;20058;-69
2022/12/14 07:00:39;;;;;;;51.53;18.73;;;;;;;-3.85;97.35;92110.44;5011663;28;20045;-69
2022/12/14 07:03:07;;;;;;;59.28;19.38;;;;;;;-3.84;97.18;92107.38;5012173;28;20056;-69
2022/12/14 07:05:34;;;;;;;46.08;18.10;;;;;;;-3.65;97.14;92105.63;5011104;28;20414;-69
2022/12/14 07:08:02;;;;;;;48.78;18.17;;;;;;;-3.69;96.68;92097.53;5011797;28;20045;-69
2022/12/14 07:10:29;;;;;;;48.47;18.55;;;;;;;-3.67;96.24;92097.94;4994252;28;20103;-69
2022/12/14 07:12:55;;;;;;;47.97;18.70;;;;;;;-3.78;96.63;92093.63;4997005;28;20065;-69
2022/12/14 07:15:22;;;;;;;48.30;19.25;;;;;;;-3.72;97.28;92097.50;5010970;28;20439;-69
2022/12/14 07:17:49;;;;;;;49.67;19.23;;;;;;;-3.70;97.60;92090.66;4999602;28;20380;-69
2022/12/14 07:20:15;;;;;;;50.13;19.70;;;;;;;-3.74;97.25;92087.19;4991532;28;20042;-69
2022/12/14 07:22:42;;;;;;;47.47;19.17;;;;;;;-3.70;97.68;92087.97;4995392;28;20042;-69
2022/12/14 07:25:14;;;;;;;49.40;19.57;;;;;;;-3.73;97.59;92086.03;4998642;28;20111;-70
2022/12/14 07:27:41;;;;;;;50.95;19.33;;;;;;;-3.64;97.63;92075.00;4997581;28;20056;-70
2022/12/14 07:30:08;;;;;;;47.55;19.33;;;;;;;-3.49;97.49;92073.19;5011294;28;20068;-70
2022/12/14 07:32:35;;;;;;;48.13;19.20;;;;;;;-3.55;97.49;92072.75;4997122;28;20046;-70
2022/12/14 07:35:02;;;;;;;50.65;19.60;;;;;;;-3.46;97.01;92073.22;5002233;28;20046;-70
2022/12/14 07:37:29;;;;;;;49.37;18.97;;;;;;;-3.34;96.75;92082.09;5006114;28;20111;-70
2022/12/14 07:39:55;;;;;;;51.50;20.20;;;;;;;-3.45;96.65;92074.75;5018460;28;20040;-70
2022/12/14 07:42:22;;;;;;;46.30;18.63;;;;;;;-3.50;96.68;92075.09;5015324;28;20128;-70
2022/12/14 07:44:49;;;;;;;49.05;18.58;;;;;;;-3.66;97.35;92077.28;5012868;28;20068;-70
2022/12/14 07:47:15;;;;;;;49.03;19.50;;;;;;;-3.75;98.10;92074.91;5010749;28;20211;-70
2022/12/14 07:49:43;;;;;;;47.27;18.47;;;;;;;-3.75;98.23;92082.19;5010846;28;20107;-70
2022/12/14 07:52:09;;;;;;;48.90;18.52;;;;;;;-3.61;98.27;92074.25;5000842;28;20051;-71
2022/12/14 07:54:36;;;;;;;53.85;22.83;;;;;;;-3.62;98.95;92068.13;5007087;28;20046;-70
2022/12/14 07:57:03;;;;;;;58.58;23.20;;;;;;;-3.52;98.07;92061.31;5002014;28;20131;-70
2022/12/14 07:59:29;;;;;;;53.38;22.20;;;;;;;-3.54;97.85;92060.91;5010649;28;20360;-70
2022/12/14 08:01:56;;;;;;;49.80;19.87;;;;;;;-3.50;97.69;92067.06;5010699;28;20045;-70
2022/12/14 08:04:23;;;;;;;60.33;21.70;;;;;;;-3.59;98.66;92063.16;5010429;28;20054;-70
2022/12/14 08:06:50;;;;;;;52.45;21.30;;;;;;;-3.56;98.00;92071.25;5010860;28;20053;-70
2022/12/14 08:09:17;;;;;;;52.30;19.38;;;;;;;-3.44;98.52;92078.97;5009517;28;20057;-70
2022/12/14 08:11:43;;;;;;;53.42;20.25;;;;;;;-3.34;98.93;92077.53;5010604;28;20398;-70
2022/12/14 08:14:16;;;;;;;48.73;19.73;;;;;;;-3.27;98.55;92077.56;5006509;28;20050;-70
2022/12/14 08:16:44;;;;;;;52.10;19.83;;;;;;;-3.36;97.90;92073.66;4996595;28;20407;-70
2022/12/14 08:19:12;;;;;;;52.15;20.55;;;;;;;-3.48;98.59;92064.00;5004964;28;20051;-70
2022/12/14 08:21:39;;;;;;;55.22;20.70;;;;;;;-3.37;98.56;92070.22;4994743;28;20042;-70
2022/12/14 08:24:06;;;;;;;48.17;19.40;;;;;;;-3.17;98.38;92076.09;5002334;28;20079;-70
2022/12/14 08:26:33;;;;;;;51.17;18.27;;;;;;;-3.14;97.70;92066.50;4987500;28;21804;-70
2022/12/14 08:29:03;;;;;;;50.22;19.75;;;;;;;-3.09;98.28;92074.97;5007549;28;20048;-69
2022/12/14 08:31:30;;;;;;;51.15;20.48;;;;;;;-2.97;97.61;92073.13;5009656;28;20056;-69
2022/12/14 08:33:58;;;;;;;54.60;20.15;;;;;;;-3.05;97.71;92066.97;5009021;28;20046;-69
2022/12/14 08:36:31;;;;;;;56.80;21.05;;;;;;;-3.10;97.94;92069.97;4997402;28;20367;-69
2022/12/14 08:39:00;;;;;;;48.00;19.90;;;;;;;-3.10;97.86;92062.72;5009433;28;20050;-69
2022/12/14 08:41:28;;;;;;;47.60;19.83;;;;;;;-3.10;98.18;92075.34;4995103;28;20469;-69
2022/12/14 08:44:00;;;;;;;54.10;21.50;;;;;;;-3.14;98.49;92069.97;5010406;28;20469;-69
2022/12/14 08:46:28;;;;;;;58.05;21.60;;;;;;;-3.08;98.97;92068.47;5009572;28;20050;-69
2022/12/14 08:48:56;;;;;;;54.58;21.70;;;;;;;-3.25;99.37;92069.13;5010446;28;20407;-69
2022/12/14 08:51:24;;;;;;;53.93;20.47;;;;;;;-3.04;99.47;92063.13;5005600;28;20042;-69
2022/12/14 08:53:52;;;;;;;52.40;20.70;;;;;;;-2.88;98.81;92060.13;4998717;28;20054;-69
2022/12/14 08:56:23;;;;;;;52.80;21.80;;;;;;;-2.82;98.68;92056.72;5000477;28;20053;-69
2022/12/14 08:58:49;;;;;;;51.70;20.48;;;;;;;-2.72;99.34;92065.19;5010262;28;20103;-69
2022/12/14 09:01:28;;;;;;;50.17;20.15;;;;;;;-2.64;98.87;92061.38;5009118;28;20498;-70
2022/12/14 09:04:04;;;;;;;54.20;21.20;;;;;;;-2.63;99.12;92049.50;5010050;28;20054;-69
2022/12/14 09:06:36;;;;;;;52.38;21.02;;;;;;;-2.66;98.69;92053.69;5009684;28;20507;-69
2022/12/14 09:09:05;;;;;;;54.13;21.33;;;;;;;-2.82;100.00;92054.03;5008787;28;20046;-69
2022/12/14 09:11:42;;;;;;;56.42;20.98;;;;;;;-2.45;100.00;92052.25;5008760;28;20363;-69
2022/12/14 09:14:09;;;;;;;50.97;21.02;;;;;;;-2.42;99.70;92056.84;5009610;28;20057;-69
2022/12/14 09:16:36;;;;;;;54.77;21.57;;;;;;;-2.24;99.00;92051.53;5009622;28;20390;-69
2022/12/14 09:19:03;;;;;;;49.78;20.20;;;;;;;-2.17;98.48;92053.44;4996062;28;20052;-69
2022/12/14 09:21:30;;;;;;;49.35;21.17;;;;;;;-2.02;98.18;92050.41;5012160;28;20042;-70
2022/12/14 09:23:57;;;;;;;48.08;19.73;;;;;;;-1.99;97.50;92048.91;5013832;28;20042;-69
2022/12/14 09:26:26;;;;;;;46.03;19.42;;;;;;;-1.76;97.49;92050.44;4994660;28;20487;-71
2022/12/14 09:28:55;;;;;;;49.40;18.80;;;;;;;-1.74;96.61;92048.91;5011839;28;20042;-69
2022/12/14 09:31:23;;;;;;;49.10;18.60;;;;;;;-1.74;96.22;92054.28;5013126;28;20060;-70
2022/12/14 09:33:50;;;;;;;45.72;17.75;;;;;;;-1.69;96.25;92058.50;5011067;28;20108;-70
2022/12/14 09:36:22;;;;;;;45.35;17.90;;;;;;;-1.75;96.42;92054.66;5001100;28;20037;-70
2022/12/14 09:38:49;;;;;;;43.70;17.67;;;;;;;-1.75;96.86;92057.34;5012051;28;20042;-69
2022/12/14 09:41:30;;;;;;;45.23;17.60;;;;;;;-1.70;96.70;92059.66;5013245;28;20376;-69
2022/12/14 09:44:12;;;;;;;44.50;18.17;;;;;;;-1.75;97.22;92050.06;5013905;28;20038;-69
2022/12/14 09:46:49;;;;;;;47.60;18.77;;;;;;;-1.56;96.12;92048.16;5005578;28;21587;-69
2022/12/14 09:49:28;;;;;;;47.97;18.65;;;;;;;-1.48;96.63;92055.81;5007582;28;20469;-70
2022/12/14 09:51:59;;;;;;;48.35;19.60;;;;;;;-1.51;96.20;92050.44;5013377;28;20042;-69
2022/12/14 09:54:29;;;;;;;46.90;19.07;;;;;;;-1.37;96.46;92039.66;5012829;28;20038;-69
2022/12/14 09:57:02;;;;;;;53.47;20.02;;;;;;;-1.38;96.42;92032.00;5001748;28;20113;-69
2022/12/14 09:59:32;;;;;;;44.50;18.77;;;;;;;-1.38;95.94;92034.69;5012655;28;20380;-70
2022/12/14 10:02:18;;;;;;;49.08;19.30;;;;;;;-1.38;97.45;92029.31;4995868;28;20042;-69
2022/12/14 10:05:19;;;;;;;52.20;20.63;;;;;;;-1.33;96.89;92028.91;4985887;28;20410;-69
2022/12/14 10:08:01;;;;;;;49.23;19.57;;;;;;;-1.01;97.02;92031.53;5006443;28;20494;-69
2022/12/14 10:10:46;;;;;;;50.17;20.27;;;;;;;-0.99;96.63;92033.84;4997411;28;20384;-69
2022/12/14 10:13:46;;;;;;;49.40;21.35;;;;;;;-0.89;96.19;92044.56;5012921;28;20037;-69
2022/12/14 10:16:31;;;;;;;46.95;19.83;;;;;;;-0.94;96.27;92046.91;5012463;28;20046;-68
2022/12/14 10:19:14;;;;;;;48.58;19.73;;;;;;;-0.82;95.31;92038.41;4999067;28;20211;-68
2022/12/14 10:21:49;;;;;;;47.53;18.80;;;;;;;-0.59;95.42;92026.41;5011658;28;20107;-68
2022/12/14 10:24:23;;;;;;;62.20;24.33;;;;;;;-0.61;94.64;92026.78;5009654;28;20061;-69
2022/12/14 10:26:52;;;;;;;45.75;19.23;;;;;;;-0.46;94.77;92027.50;5001275;28;20042;-68
2022/12/14 10:29:38;;;;;;;54.83;20.08;;;;;;;-0.68;94.87;92016.06;5012256;28;20057;-68
2022/12/14 10:32:27;;;;;;;45.40;19.08;;;;;;;-0.55;94.79;92024.44;5011789;28;20108;-69
2022/12/14 10:34:54;;;;;;;46.93;18.50;;;;;;;-0.29;94.56;92021.25;5005759;28;20043;-68
2022/12/14 10:37:34;;;;;;;43.65;18.50;;;;;;;-0.31;94.05;92026.25;5004770;28;20050;-69
2022/12/14 10:40:21;;;;;;;42.22;17.25;;;;;;;-0.37;95.23;92011.66;5012582;28;20052;-68
2022/12/14 10:43:09;;;;;;;39.15;16.88;;;;;;;-0.58;95.64;92012.53;5010397;28;20042;-68
2022/12/14 10:46:04;;;;;;;46.70;17.17;;;;;;;-0.40;96.12;92017.84;5011092;28;20876;-68
2022/12/14 10:48:57;;;;;;;61.53;21.87;;;;;;;-0.17;96.06;92020.03;5005892;28;20155;-68
2022/12/14 10:51:33;;;;;;;52.90;18.33;;;;;;;-0.16;96.40;92018.09;5004196;28;20045;-68
2022/12/14 10:54:16;;;;;;;44.53;17.63;;;;;;;-0.12;95.14;92022.31;5012092;28;20042;-69
2022/12/14 10:56:44;;;;;;;63.53;24.63;;;;;;;-0.34;96.79;92018.19;5010198;28;20042;-70
2022/12/14 10:59:22;;;;;;;61.60;27.10;;;;;;;-0.13;96.18;92012.69;5011743;28;20058;-69
2022/12/14 11:02:04;;;;;;;44.30;18.90;;;;;;;-0.10;97.38;92020.00;4995039;28;20042;-69
2022/12/14 11:04:34;;;;;;;39.97;16.10;;;;;;;-0.11;96.28;92017.69;4994885;28;20068;-69
2022/12/14 11:07:07;;;;;;;41.78;17.75;;;;;;;-0.43;97.78;92016.69;5000804;28;20046;-69
2022/12/14 11:09:36;;;;;;;43.25;17.33;;;;;;;-0.48;98.46;92016.34;5002574;28;21470;-69
2022/12/14 11:12:11;;;;;;;50.13;20.73;;;;;;;-0.65;99.38;92016.00;4992412;28;20081;-70
2022/12/14 11:15:05;;;;;;;45.63;18.03;;;;;;;-0.74;100.00;92013.00;4997417;28;20317;-69
2022/12/14 11:17:38;;;;;;;54.80;23.38;;;;;;;-0.71;100.00;92008.75;5006876;28;20411;-69
2022/12/14 11:20:08;;;;;;;48.97;20.95;;;;;;;-0.70;100.00;92021.81;5002598;28;20044;-69
2022/12/14 11:23:04;;;;;;;51.65;20.70;;;;;;;-0.57;100.00;92011.38;5010389;28;20727;-70
2022/12/14 11:25:43;;;;;;;50.42;21.17;;;;;;;-0.38;100.00;92012.03;5010923;28;20087;-69
2022/12/14 11:28:28;;;;;;;46.10;18.67;;;;;;;-0.39;100.00;92005.13;5011298;28;20054;-69
2022/12/14 11:31:03;;;;;;;49.40;19.83;;;;;;;-0.49;100.00;91999.41;5011995;28;20107;-70
2022/12/14 11:33:35;;;;;;;50.47;21.83;;;;;;;-0.45;100.00;92008.22;4998015;28;20376;-70
2022/12/14 11:36:02;;;;;;;49.15;19.27;;;;;;;-0.15;100.00;92012.31;4997922;28;20054;-70
2022/12/14 11:38:30;;;;;;;44.13;18.48;;;;;;;-0.12;100.00;92000.75;5010796;28;20048;-70
2022/12/14 11:41:00;;;;;;;45.33;18.57;;;;;;;0.07;100.00;91994.06;5011483;28;20395;-69
2022/12/14 11:43:39;;;;;;;40.63;17.33;;;;;;;0.24;99.41;92002.41;5009314;28;20042;-69
2022/12/14 11:46:06;;;;;;;44.50;19.50;;;;;;;0.44;99.20;91997.25;5010888;28;20045;-70
2022/12/14 11:48:37;;;;;;;43.58;18.63;;;;;;;0.74;98.69;91994.66;5010057;28;20375;-70
2022/12/14 11:51:12;;;;;;;42.13;18.30;;;;;;;1.00;97.27;91987.06;5011234;28;20049;-69
2022/12/14 11:53:39;;;;;;;40.13;17.57;;;;;;;1.31;96.40;91985.19;5009541;28;20634;-70